sensor_id;sensor_type;location;lat;lon;timestamp;P1;durP1;ratioP1;P2;durP2;ratioP2
22764;SDS011;11549;50.852;3.816;2023-05-07T00:01:25;10.25;;;4.60;;
22764;SDS011;11549;50.852;3.816;2023-05-07T00:03:54;15.15;;;4.50;;
22764;SDS011;11549;50.852;3.816;2023-05-07T00:06:22;13.50;;;5.22;;
22764;SDS011;11549;50.852;3.816;2023-05-07T00:08:52;13.60;;;4.70;;
22764;SDS011;11549;50.852;3.816;2023-05-07T00:11:20;11.52;;;4.65;;
22764;SDS011;11549;50.852;3.816;2023-05-07T00:13:50;11.55;;;4.60;;
22764;SDS011;11549;50.852;3.816;2023-05-07T00:16:18;12.38;;;4.60;;
22764;SDS011;11549;50.852;3.816;2023-05-07T00:18:47;13.85;;;3.90;;
22764;SDS011;11549;50.852;3.816;2023-05-07T00:21:15;11.70;;;4.65;;
22764;SDS011;11549;50.852;3.816;2023-05-07T00:23:43;13.35;;;4.53;;
22764;SDS011;11549;50.852;3.816;2023-05-07T00:26:12;13.20;;;4.38;;
22764;SDS011;11549;50.852;3.816;2023-05-07T00:28:40;11.98;;;4.47;;
22764;SDS011;11549;50.852;3.816;2023-05-07T00:31:10;10.02;;;4.72;;
22764;SDS011;11549;50.852;3.816;2023-05-07T00:33:38;8.77;;;4.20;;
22764;SDS011;11549;50.852;3.816;2023-05-07T00:36:07;11.75;;;4.57;;
22764;SDS011;11549;50.852;3.816;2023-05-07T00:38:35;13.13;;;4.38;;
22764;SDS011;11549;50.852;3.816;2023-05-07T00:41:03;12.95;;;4.93;;
22764;SDS011;11549;50.852;3.816;2023-05-07T00:43:32;11.27;;;4.97;;
22764;SDS011;11549;50.852;3.816;2023-05-07T00:46:00;11.30;;;4.60;;
22764;SDS011;11549;50.852;3.816;2023-05-07T00:48:30;12.95;;;5.28;;
22764;SDS011;11549;50.852;3.816;2023-05-07T00:50:59;12.77;;;4.90;;
22764;SDS011;11549;50.852;3.816;2023-05-07T00:53:28;14.38;;;5.30;;
22764;SDS011;11549;50.852;3.816;2023-05-07T00:55:56;14.20;;;5.15;;
22764;SDS011;11549;50.852;3.816;2023-05-07T00:58:25;10.88;;;4.50;;
22764;SDS011;11549;50.852;3.816;2023-05-07T01:00:53;12.77;;;4.88;;
22764;SDS011;11549;50.852;3.816;2023-05-07T01:03:21;12.93;;;4.85;;
22764;SDS011;11549;50.852;3.816;2023-05-07T01:05:52;11.25;;;5.03;;
22764;SDS011;11549;50.852;3.816;2023-05-07T01:08:21;12.40;;;4.78;;
22764;SDS011;11549;50.852;3.816;2023-05-07T01:10:52;12.00;;;5.38;;
22764;SDS011;11549;50.852;3.816;2023-05-07T01:13:21;14.00;;;5.10;;
22764;SDS011;11549;50.852;3.816;2023-05-07T01:15:51;12.93;;;5.60;;
22764;SDS011;11549;50.852;3.816;2023-05-07T01:18:20;13.73;;;5.47;;
22764;SDS011;11549;50.852;3.816;2023-05-07T01:20:49;12.15;;;5.63;;
22764;SDS011;11549;50.852;3.816;2023-05-07T01:23:19;12.27;;;5.90;;
22764;SDS011;11549;50.852;3.816;2023-05-07T01:25:50;11.02;;;5.38;;
22764;SDS011;11549;50.852;3.816;2023-05-07T01:28:20;13.93;;;6.03;;
22764;SDS011;11549;50.852;3.816;2023-05-07T01:30:49;11.20;;;5.90;;
22764;SDS011;11549;50.852;3.816;2023-05-07T01:33:22;12.80;;;5.70;;
22764;SDS011;11549;50.852;3.816;2023-05-07T01:35:54;13.77;;;6.00;;
22764;SDS011;11549;50.852;3.816;2023-05-07T01:38:26;13.23;;;5.65;;
22764;SDS011;11549;50.852;3.816;2023-05-07T01:40:55;13.77;;;6.07;;
22764;SDS011;11549;50.852;3.816;2023-05-07T01:43:24;9.32;;;5.53;;
22764;SDS011;11549;50.852;3.816;2023-05-07T01:45:53;13.52;;;5.80;;
22764;SDS011;11549;50.852;3.816;2023-05-07T01:48:22;12.63;;;5.35;;
22764;SDS011;11549;50.852;3.816;2023-05-07T01:50:52;13.13;;;5.88;;
22764;SDS011;11549;50.852;3.816;2023-05-07T01:53:21;13.25;;;5.40;;
22764;SDS011;11549;50.852;3.816;2023-05-07T01:55:50;12.88;;;5.32;;
22764;SDS011;11549;50.852;3.816;2023-05-07T01:58:19;14.30;;;6.03;;
22764;SDS011;11549;50.852;3.816;2023-05-07T02:00:47;12.45;;;5.80;;
22764;SDS011;11549;50.852;3.816;2023-05-07T02:03:15;10.95;;;5.20;;
22764;SDS011;11549;50.852;3.816;2023-05-07T02:05:44;14.82;;;5.60;;
22764;SDS011;11549;50.852;3.816;2023-05-07T02:08:12;13.25;;;5.28;;
22764;SDS011;11549;50.852;3.816;2023-05-07T02:10:40;11.18;;;5.25;;
22764;SDS011;11549;50.852;3.816;2023-05-07T02:13:10;12.27;;;5.47;;
22764;SDS011;11549;50.852;3.816;2023-05-07T02:15:38;11.18;;;5.10;;
22764;SDS011;11549;50.852;3.816;2023-05-07T02:18:08;11.93;;;5.28;;
22764;SDS011;11549;50.852;3.816;2023-05-07T02:20:36;13.57;;;5.32;;
22764;SDS011;11549;50.852;3.816;2023-05-07T02:23:04;12.63;;;5.43;;
22764;SDS011;11549;50.852;3.816;2023-05-07T02:25:33;12.98;;;5.60;;
22764;SDS011;11549;50.852;3.816;2023-05-07T02:28:01;12.75;;;5.40;;
22764;SDS011;11549;50.852;3.816;2023-05-07T02:30:31;11.43;;;5.65;;
22764;SDS011;11549;50.852;3.816;2023-05-07T02:33:00;14.73;;;5.35;;
22764;SDS011;11549;50.852;3.816;2023-05-07T02:35:28;12.57;;;5.82;;
22764;SDS011;11549;50.852;3.816;2023-05-07T02:37:56;11.15;;;5.65;;
22764;SDS011;11549;50.852;3.816;2023-05-07T02:40:25;14.60;;;5.80;;
22764;SDS011;11549;50.852;3.816;2023-05-07T02:42:53;15.38;;;6.00;;
22764;SDS011;11549;50.852;3.816;2023-05-07T02:45:22;16.38;;;6.53;;
22764;SDS011;11549;50.852;3.816;2023-05-07T02:47:51;13.48;;;6.15;;
22764;SDS011;11549;50.852;3.816;2023-05-07T02:50:20;12.02;;;6.03;;
22764;SDS011;11549;50.852;3.816;2023-05-07T02:52:48;15.23;;;6.95;;
22764;SDS011;11549;50.852;3.816;2023-05-07T02:55:18;11.07;;;6.40;;
22764;SDS011;11549;50.852;3.816;2023-05-07T02:57:46;11.73;;;6.57;;
22764;SDS011;11549;50.852;3.816;2023-05-07T03:00:15;14.02;;;6.15;;
22764;SDS011;11549;50.852;3.816;2023-05-07T03:02:44;11.75;;;5.95;;
22764;SDS011;11549;50.852;3.816;2023-05-07T03:05:14;16.15;;;6.30;;
22764;SDS011;11549;50.852;3.816;2023-05-07T03:07:43;13.60;;;6.25;;
22764;SDS011;11549;50.852;3.816;2023-05-07T03:10:12;14.77;;;6.65;;
22764;SDS011;11549;50.852;3.816;2023-05-07T03:12:41;11.77;;;6.15;;
22764;SDS011;11549;50.852;3.816;2023-05-07T03:15:09;13.65;;;6.20;;
22764;SDS011;11549;50.852;3.816;2023-05-07T03:17:39;15.52;;;6.82;;
22764;SDS011;11549;50.852;3.816;2023-05-07T03:20:07;15.73;;;6.47;;
22764;SDS011;11549;50.852;3.816;2023-05-07T03:22:39;14.98;;;6.78;;
22764;SDS011;11549;50.852;3.816;2023-05-07T03:25:08;13.15;;;6.30;;
22764;SDS011;11549;50.852;3.816;2023-05-07T03:27:36;14.68;;;6.78;;
22764;SDS011;11549;50.852;3.816;2023-05-07T03:30:06;13.52;;;6.82;;
22764;SDS011;11549;50.852;3.816;2023-05-07T03:32:35;14.05;;;6.53;;
22764;SDS011;11549;50.852;3.816;2023-05-07T03:35:04;16.52;;;6.78;;
22764;SDS011;11549;50.852;3.816;2023-05-07T03:37:33;16.48;;;7.57;;
22764;SDS011;11549;50.852;3.816;2023-05-07T03:40:03;16.92;;;6.50;;
22764;SDS011;11549;50.852;3.816;2023-05-07T03:42:32;16.20;;;6.90;;
22764;SDS011;11549;50.852;3.816;2023-05-07T03:45:00;14.27;;;6.90;;
22764;SDS011;11549;50.852;3.816;2023-05-07T03:47:28;12.68;;;6.75;;
22764;SDS011;11549;50.852;3.816;2023-05-07T03:49:57;13.30;;;6.70;;
22764;SDS011;11549;50.852;3.816;2023-05-07T03:52:25;14.63;;;6.95;;
22764;SDS011;11549;50.852;3.816;2023-05-07T03:54:54;16.83;;;7.35;;
22764;SDS011;11549;50.852;3.816;2023-05-07T03:57:23;15.18;;;7.15;;
22764;SDS011;11549;50.852;3.816;2023-05-07T03:59:52;16.52;;;7.60;;
22764;SDS011;11549;50.852;3.816;2023-05-07T04:02:20;16.40;;;7.07;;
22764;SDS011;11549;50.852;3.816;2023-05-07T04:04:48;16.63;;;7.38;;
22764;SDS011;11549;50.852;3.816;2023-05-07T04:07:17;19.05;;;7.78;;
22764;SDS011;11549;50.852;3.816;2023-05-07T04:09:45;14.95;;;7.43;;
22764;SDS011;11549;50.852;3.816;2023-05-07T04:12:13;18.67;;;8.13;;
22764;SDS011;11549;50.852;3.816;2023-05-07T04:14:44;18.02;;;8.25;;
22764;SDS011;11549;50.852;3.816;2023-05-07T04:17:12;15.55;;;7.90;;
22764;SDS011;11549;50.852;3.816;2023-05-07T04:19:40;12.57;;;7.07;;
22764;SDS011;11549;50.852;3.816;2023-05-07T04:22:12;12.95;;;6.75;;
22764;SDS011;11549;50.852;3.816;2023-05-07T04:24:40;12.88;;;6.75;;
22764;SDS011;11549;50.852;3.816;2023-05-07T04:27:08;10.07;;;6.07;;
22764;SDS011;11549;50.852;3.816;2023-05-07T04:29:36;16.20;;;8.07;;
22764;SDS011;11549;50.852;3.816;2023-05-07T04:32:10;15.35;;;7.22;;
22764;SDS011;11549;50.852;3.816;2023-05-07T04:34:39;13.85;;;7.60;;
22764;SDS011;11549;50.852;3.816;2023-05-07T04:37:07;14.20;;;8.18;;
22764;SDS011;11549;50.852;3.816;2023-05-07T04:39:35;14.45;;;7.07;;
22764;SDS011;11549;50.852;3.816;2023-05-07T04:42:04;14.27;;;7.13;;
22764;SDS011;11549;50.852;3.816;2023-05-07T04:44:33;10.82;;;6.40;;
22764;SDS011;11549;50.852;3.816;2023-05-07T04:47:03;13.77;;;7.45;;
22764;SDS011;11549;50.852;3.816;2023-05-07T04:49:33;13.60;;;8.13;;
22764;SDS011;11549;50.852;3.816;2023-05-07T04:52:01;10.60;;;7.78;;
22764;SDS011;11549;50.852;3.816;2023-05-07T04:54:29;13.85;;;7.68;;
22764;SDS011;11549;50.852;3.816;2023-05-07T04:56:58;19.60;;;8.38;;
22764;SDS011;11549;50.852;3.816;2023-05-07T04:59:26;18.73;;;8.63;;
22764;SDS011;11549;50.852;3.816;2023-05-07T05:01:54;19.52;;;8.57;;
22764;SDS011;11549;50.852;3.816;2023-05-07T05:04:24;16.50;;;8.32;;
22764;SDS011;11549;50.852;3.816;2023-05-07T05:06:54;14.75;;;8.00;;
22764;SDS011;11549;50.852;3.816;2023-05-07T05:09:22;16.08;;;8.00;;
22764;SDS011;11549;50.852;3.816;2023-05-07T05:11:51;16.40;;;8.13;;
22764;SDS011;11549;50.852;3.816;2023-05-07T05:14:19;15.77;;;8.52;;
22764;SDS011;11549;50.852;3.816;2023-05-07T05:16:47;15.63;;;7.60;;
22764;SDS011;11549;50.852;3.816;2023-05-07T05:19:16;14.15;;;7.65;;
22764;SDS011;11549;50.852;3.816;2023-05-07T05:21:45;13.60;;;7.63;;
22764;SDS011;11549;50.852;3.816;2023-05-07T05:24:14;19.23;;;9.68;;
22764;SDS011;11549;50.852;3.816;2023-05-07T05:26:43;13.98;;;7.88;;
22764;SDS011;11549;50.852;3.816;2023-05-07T05:29:11;15.70;;;8.45;;
22764;SDS011;11549;50.852;3.816;2023-05-07T05:31:39;13.65;;;7.95;;
22764;SDS011;11549;50.852;3.816;2023-05-07T05:34:09;15.93;;;7.80;;
22764;SDS011;11549;50.852;3.816;2023-05-07T05:36:37;14.20;;;7.43;;
22764;SDS011;11549;50.852;3.816;2023-05-07T05:39:05;12.57;;;6.85;;
22764;SDS011;11549;50.852;3.816;2023-05-07T05:41:36;11.85;;;7.47;;
22764;SDS011;11549;50.852;3.816;2023-05-07T05:44:04;12.05;;;6.75;;
22764;SDS011;11549;50.852;3.816;2023-05-07T05:46:33;12.98;;;6.88;;
22764;SDS011;11549;50.852;3.816;2023-05-07T05:49:02;12.07;;;6.47;;
22764;SDS011;11549;50.852;3.816;2023-05-07T05:51:31;10.02;;;6.00;;
22764;SDS011;11549;50.852;3.816;2023-05-07T05:53:59;11.63;;;6.97;;
22764;SDS011;11549;50.852;3.816;2023-05-07T05:56:27;13.70;;;6.60;;
22764;SDS011;11549;50.852;3.816;2023-05-07T05:58:57;13.63;;;6.75;;
22764;SDS011;11549;50.852;3.816;2023-05-07T06:01:26;9.77;;;5.78;;
22764;SDS011;11549;50.852;3.816;2023-05-07T06:03:54;11.70;;;5.90;;
22764;SDS011;11549;50.852;3.816;2023-05-07T06:06:23;12.25;;;5.78;;
22764;SDS011;11549;50.852;3.816;2023-05-07T06:08:52;10.63;;;6.13;;
22764;SDS011;11549;50.852;3.816;2023-05-07T06:11:20;10.38;;;6.00;;
22764;SDS011;11549;50.852;3.816;2023-05-07T06:13:48;13.43;;;6.20;;
22764;SDS011;11549;50.852;3.816;2023-05-07T06:16:18;12.10;;;6.00;;
22764;SDS011;11549;50.852;3.816;2023-05-07T06:18:46;10.15;;;5.90;;
22764;SDS011;11549;50.852;3.816;2023-05-07T06:21:15;11.52;;;5.57;;
22764;SDS011;11549;50.852;3.816;2023-05-07T06:23:43;11.30;;;5.47;;
22764;SDS011;11549;50.852;3.816;2023-05-07T06:26:12;8.68;;;5.30;;
22764;SDS011;11549;50.852;3.816;2023-05-07T06:28:40;11.43;;;5.70;;
22764;SDS011;11549;50.852;3.816;2023-05-07T06:31:11;8.07;;;5.10;;
22764;SDS011;11549;50.852;3.816;2023-05-07T06:33:42;9.30;;;5.80;;
22764;SDS011;11549;50.852;3.816;2023-05-07T06:36:11;9.45;;;5.22;;
22764;SDS011;11549;50.852;3.816;2023-05-07T06:38:39;11.98;;;5.40;;
22764;SDS011;11549;50.852;3.816;2023-05-07T06:41:08;8.88;;;5.00;;
22764;SDS011;11549;50.852;3.816;2023-05-07T06:43:36;8.50;;;4.75;;
22764;SDS011;11549;50.852;3.816;2023-05-07T06:46:04;8.90;;;5.30;;
22764;SDS011;11549;50.852;3.816;2023-05-07T06:48:33;8.02;;;4.80;;
22764;SDS011;11549;50.852;3.816;2023-05-07T06:51:03;10.05;;;4.30;;
22764;SDS011;11549;50.852;3.816;2023-05-07T06:53:31;7.68;;;4.22;;
22764;SDS011;11549;50.852;3.816;2023-05-07T06:56:01;9.45;;;4.28;;
22764;SDS011;11549;50.852;3.816;2023-05-07T06:58:29;7.18;;;3.72;;
22764;SDS011;11549;50.852;3.816;2023-05-07T07:00:58;8.75;;;4.70;;
22764;SDS011;11549;50.852;3.816;2023-05-07T07:03:26;6.35;;;3.85;;
22764;SDS011;11549;50.852;3.816;2023-05-07T07:05:54;7.13;;;3.92;;
22764;SDS011;11549;50.852;3.816;2023-05-07T07:08:24;10.32;;;4.40;;
22764;SDS011;11549;50.852;3.816;2023-05-07T07:10:53;8.32;;;4.10;;
22764;SDS011;11549;50.852;3.816;2023-05-07T07:13:21;7.75;;;4.10;;
22764;SDS011;11549;50.852;3.816;2023-05-07T07:15:49;7.60;;;4.15;;
22764;SDS011;11549;50.852;3.816;2023-05-07T07:18:18;8.20;;;3.97;;
22764;SDS011;11549;50.852;3.816;2023-05-07T07:20:46;6.93;;;3.63;;
22764;SDS011;11549;50.852;3.816;2023-05-07T07:23:15;10.73;;;5.00;;
22764;SDS011;11549;50.852;3.816;2023-05-07T07:25:44;10.85;;;4.32;;
22764;SDS011;11549;50.852;3.816;2023-05-07T07:28:13;7.05;;;3.40;;
22764;SDS011;11549;50.852;3.816;2023-05-07T07:30:42;8.15;;;3.80;;
22764;SDS011;11549;50.852;3.816;2023-05-07T07:33:10;6.40;;;3.38;;
22764;SDS011;11549;50.852;3.816;2023-05-07T07:35:38;5.82;;;3.15;;
22764;SDS011;11549;50.852;3.816;2023-05-07T07:38:07;6.65;;;3.60;;
22764;SDS011;11549;50.852;3.816;2023-05-07T07:40:35;7.30;;;3.88;;
22764;SDS011;11549;50.852;3.816;2023-05-07T07:43:05;9.70;;;3.78;;
22764;SDS011;11549;50.852;3.816;2023-05-07T07:45:33;7.45;;;3.70;;
22764;SDS011;11549;50.852;3.816;2023-05-07T07:48:02;8.18;;;3.67;;
22764;SDS011;11549;50.852;3.816;2023-05-07T07:50:31;5.85;;;3.30;;
22764;SDS011;11549;50.852;3.816;2023-05-07T07:53:10;8.52;;;3.80;;
22764;SDS011;11549;50.852;3.816;2023-05-07T07:55:39;5.85;;;3.42;;
22764;SDS011;11549;50.852;3.816;2023-05-07T07:58:09;9.88;;;3.70;;
22764;SDS011;11549;50.852;3.816;2023-05-07T08:00:37;7.75;;;3.80;;
22764;SDS011;11549;50.852;3.816;2023-05-07T08:03:05;6.30;;;3.97;;
22764;SDS011;11549;50.852;3.816;2023-05-07T08:05:37;7.78;;;4.88;;
22764;SDS011;11549;50.852;3.816;2023-05-07T08:08:05;8.50;;;4.72;;
22764;SDS011;11549;50.852;3.816;2023-05-07T08:10:34;8.30;;;5.20;;
22764;SDS011;11549;50.852;3.816;2023-05-07T08:13:04;9.68;;;5.57;;
22764;SDS011;11549;50.852;3.816;2023-05-07T08:15:34;8.50;;;5.35;;
22764;SDS011;11549;50.852;3.816;2023-05-07T08:18:03;10.40;;;5.32;;
22764;SDS011;11549;50.852;3.816;2023-05-07T08:20:31;8.05;;;4.50;;
22764;SDS011;11549;50.852;3.816;2023-05-07T08:23:03;7.65;;;4.57;;
22764;SDS011;11549;50.852;3.816;2023-05-07T08:25:32;7.90;;;4.40;;
22764;SDS011;11549;50.852;3.816;2023-05-07T08:28:01;9.00;;;4.57;;
22764;SDS011;11549;50.852;3.816;2023-05-07T08:30:31;9.98;;;5.45;;
22764;SDS011;11549;50.852;3.816;2023-05-07T08:33:01;8.98;;;4.35;;
22764;SDS011;11549;50.852;3.816;2023-05-07T08:35:29;7.38;;;3.95;;
22764;SDS011;11549;50.852;3.816;2023-05-07T08:37:57;7.93;;;4.60;;
22764;SDS011;11549;50.852;3.816;2023-05-07T08:40:26;9.45;;;4.20;;
22764;SDS011;11549;50.852;3.816;2023-05-07T08:42:54;7.32;;;3.90;;
22764;SDS011;11549;50.852;3.816;2023-05-07T08:45:25;8.88;;;4.40;;
22764;SDS011;11549;50.852;3.816;2023-05-07T08:47:58;7.25;;;4.13;;
22764;SDS011;11549;50.852;3.816;2023-05-07T08:50:30;7.38;;;3.55;;
22764;SDS011;11549;50.852;3.816;2023-05-07T08:52:59;6.05;;;3.50;;
22764;SDS011;11549;50.852;3.816;2023-05-07T08:55:28;7.18;;;3.53;;
22764;SDS011;11549;50.852;3.816;2023-05-07T08:57:57;6.00;;;2.88;;
22764;SDS011;11549;50.852;3.816;2023-05-07T09:00:25;6.05;;;3.13;;
22764;SDS011;11549;50.852;3.816;2023-05-07T09:02:53;6.45;;;2.85;;
22764;SDS011;11549;50.852;3.816;2023-05-07T09:05:23;9.68;;;3.15;;
22764;SDS011;11549;50.852;3.816;2023-05-07T09:07:52;7.53;;;3.13;;
22764;SDS011;11549;50.852;3.816;2023-05-07T09:10:23;5.53;;;3.00;;
22764;SDS011;11549;50.852;3.816;2023-05-07T09:12:53;7.40;;;3.45;;
22764;SDS011;11549;50.852;3.816;2023-05-07T09:15:22;5.78;;;3.03;;
22764;SDS011;11549;50.852;3.816;2023-05-07T09:17:51;7.50;;;3.60;;
22764;SDS011;11549;50.852;3.816;2023-05-07T09:20:19;6.93;;;3.60;;
22764;SDS011;11549;50.852;3.816;2023-05-07T09:22:50;7.53;;;3.80;;
22764;SDS011;11549;50.852;3.816;2023-05-07T09:25:22;6.78;;;3.63;;
22764;SDS011;11549;50.852;3.816;2023-05-07T09:27:56;8.20;;;4.00;;
22764;SDS011;11549;50.852;3.816;2023-05-07T09:30:27;6.75;;;4.15;;
22764;SDS011;11549;50.852;3.816;2023-05-07T09:32:56;8.13;;;4.00;;
22764;SDS011;11549;50.852;3.816;2023-05-07T09:35:25;8.15;;;4.50;;
22764;SDS011;11549;50.852;3.816;2023-05-07T09:37:56;8.32;;;4.88;;
22764;SDS011;11549;50.852;3.816;2023-05-07T09:40:29;7.90;;;4.40;;
22764;SDS011;11549;50.852;3.816;2023-05-07T09:43:08;8.38;;;4.43;;
22764;SDS011;11549;50.852;3.816;2023-05-07T09:45:38;6.35;;;4.13;;
22764;SDS011;11549;50.852;3.816;2023-05-07T09:48:06;8.13;;;5.30;;
22764;SDS011;11549;50.852;3.816;2023-05-07T09:50:36;11.23;;;5.50;;
22764;SDS011;11549;50.852;3.816;2023-05-07T09:53:15;8.52;;;5.28;;
22764;SDS011;11549;50.852;3.816;2023-05-07T09:55:45;9.52;;;5.95;;
22764;SDS011;11549;50.852;3.816;2023-05-07T09:58:13;10.07;;;5.88;;
22764;SDS011;11549;50.852;3.816;2023-05-07T10:00:43;7.88;;;5.10;;
22764;SDS011;11549;50.852;3.816;2023-05-07T10:03:13;7.47;;;4.95;;
22764;SDS011;11549;50.852;3.816;2023-05-07T10:05:43;7.80;;;6.40;;
22764;SDS011;11549;50.852;3.816;2023-05-07T10:08:15;9.32;;;6.03;;
22764;SDS011;11549;50.852;3.816;2023-05-07T10:10:43;8.98;;;6.40;;
22764;SDS011;11549;50.852;3.816;2023-05-07T10:13:12;10.90;;;6.50;;
22764;SDS011;11549;50.852;3.816;2023-05-07T10:15:41;10.40;;;6.95;;
22764;SDS011;11549;50.852;3.816;2023-05-07T10:18:10;9.85;;;6.68;;
22764;SDS011;11549;50.852;3.816;2023-05-07T10:20:41;8.65;;;7.13;;
22764;SDS011;11549;50.852;3.816;2023-05-07T10:23:12;9.55;;;7.13;;
22764;SDS011;11549;50.852;3.816;2023-05-07T10:25:44;8.45;;;7.07;;
22764;SDS011;11549;50.852;3.816;2023-05-07T10:28:13;8.98;;;7.80;;
22764;SDS011;11549;50.852;3.816;2023-05-07T10:30:47;8.07;;;7.28;;
22764;SDS011;11549;50.852;3.816;2023-05-07T10:33:28;8.43;;;7.47;;
22764;SDS011;11549;50.852;3.816;2023-05-07T10:35:59;9.57;;;7.88;;
22764;SDS011;11549;50.852;3.816;2023-05-07T10:38:32;8.80;;;8.00;;
22764;SDS011;11549;50.852;3.816;2023-05-07T10:41:01;9.20;;;8.02;;
22764;SDS011;11549;50.852;3.816;2023-05-07T10:43:38;9.80;;;8.80;;
22764;SDS011;11549;50.852;3.816;2023-05-07T10:46:15;9.63;;;8.07;;
22764;SDS011;11549;50.852;3.816;2023-05-07T10:51:37;9.68;;;8.55;;
22764;SDS011;11549;50.852;3.816;2023-05-07T10:54:20;8.60;;;7.80;;
22764;SDS011;11549;50.852;3.816;2023-05-07T10:59:31;10.40;;;8.65;;
22764;SDS011;11549;50.852;3.816;2023-05-07T11:02:08;9.48;;;8.35;;
22764;SDS011;11549;50.852;3.816;2023-05-07T11:04:40;8.88;;;7.97;;
22764;SDS011;11549;50.852;3.816;2023-05-07T11:07:23;8.38;;;7.55;;
22764;SDS011;11549;50.852;3.816;2023-05-07T11:10:04;9.05;;;7.55;;
22764;SDS011;11549;50.852;3.816;2023-05-07T11:12:47;11.18;;;8.93;;
22764;SDS011;11549;50.852;3.816;2023-05-07T11:15:38;9.73;;;8.73;;
22764;SDS011;11549;50.852;3.816;2023-05-07T11:18:12;10.52;;;9.18;;
22764;SDS011;11549;50.852;3.816;2023-05-07T11:20:46;9.85;;;8.85;;
22764;SDS011;11549;50.852;3.816;2023-05-07T11:26:26;10.10;;;9.07;;
22764;SDS011;11549;50.852;3.816;2023-05-07T11:28:57;9.25;;;8.25;;
22764;SDS011;11549;50.852;3.816;2023-05-07T11:31:27;10.30;;;8.30;;
22764;SDS011;11549;50.852;3.816;2023-05-07T11:33:56;10.98;;;9.80;;
22764;SDS011;11549;50.852;3.816;2023-05-07T11:36:25;9.88;;;8.30;;
22764;SDS011;11549;50.852;3.816;2023-05-07T11:38:58;10.80;;;9.23;;
22764;SDS011;11549;50.852;3.816;2023-05-07T11:41:38;10.73;;;9.55;;
22764;SDS011;11549;50.852;3.816;2023-05-07T11:44:09;10.55;;;8.90;;
22764;SDS011;11549;50.852;3.816;2023-05-07T11:46:37;10.57;;;9.48;;
22764;SDS011;11549;50.852;3.816;2023-05-07T11:51:39;11.05;;;9.40;;
22764;SDS011;11549;50.852;3.816;2023-05-07T11:54:08;10.60;;;9.40;;
22764;SDS011;11549;50.852;3.816;2023-05-07T11:56:39;11.18;;;9.98;;
22764;SDS011;11549;50.852;3.816;2023-05-07T11:59:07;11.20;;;9.40;;
22764;SDS011;11549;50.852;3.816;2023-05-07T12:01:35;12.18;;;10.18;;
22764;SDS011;11549;50.852;3.816;2023-05-07T12:04:04;10.90;;;9.68;;
22764;SDS011;11549;50.852;3.816;2023-05-07T12:06:35;10.65;;;9.35;;
22764;SDS011;11549;50.852;3.816;2023-05-07T12:09:04;11.77;;;9.65;;
22764;SDS011;11549;50.852;3.816;2023-05-07T12:11:39;9.60;;;8.60;;
22764;SDS011;11549;50.852;3.816;2023-05-07T12:14:07;9.45;;;8.55;;
22764;SDS011;11549;50.852;3.816;2023-05-07T12:16:38;11.90;;;9.35;;
22764;SDS011;11549;50.852;3.816;2023-05-07T12:19:08;10.30;;;9.15;;
22764;SDS011;11549;50.852;3.816;2023-05-07T12:21:41;8.60;;;7.72;;
22764;SDS011;11549;50.852;3.816;2023-05-07T12:24:10;13.13;;;9.55;;
22764;SDS011;11549;50.852;3.816;2023-05-07T12:26:39;11.45;;;10.15;;
22764;SDS011;11549;50.852;3.816;2023-05-07T12:29:08;15.32;;;10.57;;
22764;SDS011;11549;50.852;3.816;2023-05-07T12:31:39;10.32;;;9.20;;
22764;SDS011;11549;50.852;3.816;2023-05-07T12:34:08;11.75;;;8.70;;
22764;SDS011;11549;50.852;3.816;2023-05-07T12:36:39;11.43;;;9.27;;
22764;SDS011;11549;50.852;3.816;2023-05-07T12:39:07;15.45;;;9.65;;
22764;SDS011;11549;50.852;3.816;2023-05-07T12:41:36;13.15;;;9.23;;
22764;SDS011;11549;50.852;3.816;2023-05-07T12:44:22;14.45;;;11.10;;
22764;SDS011;11549;50.852;3.816;2023-05-07T12:46:51;14.95;;;11.32;;
22764;SDS011;11549;50.852;3.816;2023-05-07T12:49:19;14.50;;;11.07;;
22764;SDS011;11549;50.852;3.816;2023-05-07T12:51:50;14.38;;;10.70;;
22764;SDS011;11549;50.852;3.816;2023-05-07T12:54:29;12.88;;;10.07;;
22764;SDS011;11549;50.852;3.816;2023-05-07T12:57:03;17.08;;;12.63;;
22764;SDS011;11549;50.852;3.816;2023-05-07T12:59:33;14.95;;;10.60;;
22764;SDS011;11549;50.852;3.816;2023-05-07T13:02:02;16.33;;;12.23;;
22764;SDS011;11549;50.852;3.816;2023-05-07T13:04:31;19.42;;;13.05;;
22764;SDS011;11549;50.852;3.816;2023-05-07T13:07:00;19.52;;;14.43;;
22764;SDS011;11549;50.852;3.816;2023-05-07T13:09:28;19.70;;;13.80;;
22764;SDS011;11549;50.852;3.816;2023-05-07T13:11:58;23.95;;;15.80;;
22764;SDS011;11549;50.852;3.816;2023-05-07T13:14:29;18.83;;;13.35;;
22764;SDS011;11549;50.852;3.816;2023-05-07T13:16:57;20.23;;;14.05;;
22764;SDS011;11549;50.852;3.816;2023-05-07T13:19:26;21.75;;;15.10;;
22764;SDS011;11549;50.852;3.816;2023-05-07T13:21:57;24.77;;;17.85;;
22764;SDS011;11549;50.852;3.816;2023-05-07T13:24:25;26.80;;;18.80;;
22764;SDS011;11549;50.852;3.816;2023-05-07T13:26:53;22.40;;;17.27;;
22764;SDS011;11549;50.852;3.816;2023-05-07T13:29:22;24.42;;;17.00;;
22764;SDS011;11549;50.852;3.816;2023-05-07T13:31:56;24.98;;;18.15;;
22764;SDS011;11549;50.852;3.816;2023-05-07T13:34:25;26.23;;;19.48;;
22764;SDS011;11549;50.852;3.816;2023-05-07T13:36:56;21.77;;;17.27;;
22764;SDS011;11549;50.852;3.816;2023-05-07T13:39:24;26.75;;;20.58;;
22764;SDS011;11549;50.852;3.816;2023-05-07T13:41:52;25.05;;;18.30;;
22764;SDS011;11549;50.852;3.816;2023-05-07T13:44:20;23.35;;;17.30;;
22764;SDS011;11549;50.852;3.816;2023-05-07T13:46:49;27.85;;;18.27;;
22764;SDS011;11549;50.852;3.816;2023-05-07T13:49:19;27.77;;;19.90;;
22764;SDS011;11549;50.852;3.816;2023-05-07T13:51:47;26.55;;;19.25;;
22764;SDS011;11549;50.852;3.816;2023-05-07T13:54:16;25.83;;;18.15;;
22764;SDS011;11549;50.852;3.816;2023-05-07T13:56:44;29.35;;;18.65;;
22764;SDS011;11549;50.852;3.816;2023-05-07T13:59:12;26.38;;;17.63;;
22764;SDS011;11549;50.852;3.816;2023-05-07T14:01:41;30.65;;;18.52;;
22764;SDS011;11549;50.852;3.816;2023-05-07T14:04:10;24.63;;;18.52;;
22764;SDS011;11549;50.852;3.816;2023-05-07T14:06:39;25.90;;;16.92;;
22764;SDS011;11549;50.852;3.816;2023-05-07T14:09:08;23.58;;;15.80;;
22764;SDS011;11549;50.852;3.816;2023-05-07T14:11:39;24.17;;;16.27;;
22764;SDS011;11549;50.852;3.816;2023-05-07T14:14:08;26.02;;;17.80;;
22764;SDS011;11549;50.852;3.816;2023-05-07T14:16:37;27.35;;;18.10;;
22764;SDS011;11549;50.852;3.816;2023-05-07T14:19:06;25.83;;;16.48;;
22764;SDS011;11549;50.852;3.816;2023-05-07T14:21:34;23.48;;;16.52;;
22764;SDS011;11549;50.852;3.816;2023-05-07T14:24:06;24.08;;;16.73;;
22764;SDS011;11549;50.852;3.816;2023-05-07T14:26:35;24.27;;;17.42;;
22764;SDS011;11549;50.852;3.816;2023-05-07T14:29:03;26.55;;;18.25;;
22764;SDS011;11549;50.852;3.816;2023-05-07T14:31:31;27.88;;;18.83;;
22764;SDS011;11549;50.852;3.816;2023-05-07T14:34:00;24.80;;;18.95;;
22764;SDS011;11549;50.852;3.816;2023-05-07T14:36:28;27.27;;;19.65;;
22764;SDS011;11549;50.852;3.816;2023-05-07T14:38:58;27.55;;;18.95;;
22764;SDS011;11549;50.852;3.816;2023-05-07T14:41:28;28.08;;;18.67;;
22764;SDS011;11549;50.852;3.816;2023-05-07T14:43:56;23.17;;;17.05;;
22764;SDS011;11549;50.852;3.816;2023-05-07T14:46:25;20.83;;;17.15;;
22764;SDS011;11549;50.852;3.816;2023-05-07T14:48:53;21.75;;;17.45;;
22764;SDS011;11549;50.852;3.816;2023-05-07T14:51:21;25.83;;;19.15;;
22764;SDS011;11549;50.852;3.816;2023-05-07T14:53:50;26.38;;;18.92;;
22764;SDS011;11549;50.852;3.816;2023-05-07T14:56:18;27.50;;;20.17;;
22764;SDS011;11549;50.852;3.816;2023-05-07T14:58:49;24.92;;;18.73;;
22764;SDS011;11549;50.852;3.816;2023-05-07T15:01:17;26.45;;;18.85;;